sensor_id;sensor_type;location;lat;lon;timestamp;P1;durP1;ratioP1;P2;durP2;ratioP2
15006;SDS011;7599;50.748;13.142;2023-08-20T00:00:47;5.97;;;5.07;;
15006;SDS011;7599;50.748;13.142;2023-08-20T00:04:28;7.85;;;6.03;;
15006;SDS011;7599;50.748;13.142;2023-08-20T00:07:35;5.95;;;4.70;;
15006;SDS011;7599;50.748;13.142;2023-08-20T00:10:48;8.00;;;5.00;;
15006;SDS011;7599;50.748;13.142;2023-08-20T00:13:51;8.43;;;5.75;;
15006;SDS011;7599;50.748;13.142;2023-08-20T00:16:54;5.25;;;4.45;;
15006;SDS011;7599;50.748;13.142;2023-08-20T00:20:01;7.00;;;5.75;;
15006;SDS011;7599;50.748;13.142;2023-08-20T00:23:13;6.38;;;4.95;;
15006;SDS011;7599;50.748;13.142;2023-08-20T00:26:16;5.80;;;4.75;;
15006;SDS011;7599;50.748;13.142;2023-08-20T00:29:19;7.22;;;5.50;;
15006;SDS011;7599;50.748;13.142;2023-08-20T00:32:22;6.75;;;4.72;;
15006;SDS011;7599;50.748;13.142;2023-08-20T00:35:25;5.78;;;4.97;;
15006;SDS011;7599;50.748;13.142;2023-08-20T00:38:29;7.10;;;6.20;;
15006;SDS011;7599;50.748;13.142;2023-08-20T00:41:35;5.93;;;5.05;;
15006;SDS011;7599;50.748;13.142;2023-08-20T00:44:38;6.35;;;4.78;;
15006;SDS011;7599;50.748;13.142;2023-08-20T00:47:44;6.15;;;4.90;;
15006;SDS011;7599;50.748;13.142;2023-08-20T00:50:48;6.43;;;4.80;;
15006;SDS011;7599;50.748;13.142;2023-08-20T00:53:52;6.30;;;5.10;;
15006;SDS011;7599;50.748;13.142;2023-08-20T00:56:55;7.25;;;6.07;;
15006;SDS011;7599;50.748;13.142;2023-08-20T01:00:05;7.07;;;4.70;;
15006;SDS011;7599;50.748;13.142;2023-08-20T01:03:10;7.32;;;4.85;;
15006;SDS011;7599;50.748;13.142;2023-08-20T01:06:15;6.53;;;4.95;;
15006;SDS011;7599;50.748;13.142;2023-08-20T01:09:26;8.27;;;5.75;;
15006;SDS011;7599;50.748;13.142;2023-08-20T01:12:40;7.43;;;4.75;;
15006;SDS011;7599;50.748;13.142;2023-08-20T01:15:44;5.50;;;4.63;;
15006;SDS011;7599;50.748;13.142;2023-08-20T01:18:47;7.28;;;5.07;;
15006;SDS011;7599;50.748;13.142;2023-08-20T01:21:56;6.35;;;4.97;;
15006;SDS011;7599;50.748;13.142;2023-08-20T01:25:16;6.18;;;5.05;;
15006;SDS011;7599;50.748;13.142;2023-08-20T01:28:47;6.40;;;5.53;;
15006;SDS011;7599;50.748;13.142;2023-08-20T01:31:51;7.47;;;5.78;;
15006;SDS011;7599;50.748;13.142;2023-08-20T01:34:56;7.13;;;5.60;;
15006;SDS011;7599;50.748;13.142;2023-08-20T01:37:59;7.50;;;4.90;;
15006;SDS011;7599;50.748;13.142;2023-08-20T01:41:02;7.82;;;5.95;;
15006;SDS011;7599;50.748;13.142;2023-08-20T01:44:07;7.43;;;5.30;;
15006;SDS011;7599;50.748;13.142;2023-08-20T01:47:09;6.72;;;5.22;;
15006;SDS011;7599;50.748;13.142;2023-08-20T01:50:24;5.68;;;4.80;;
15006;SDS011;7599;50.748;13.142;2023-08-20T01:53:27;6.63;;;5.18;;
15006;SDS011;7599;50.748;13.142;2023-08-20T01:56:30;7.35;;;5.28;;
15006;SDS011;7599;50.748;13.142;2023-08-20T01:59:34;6.07;;;4.13;;
15006;SDS011;7599;50.748;13.142;2023-08-20T02:02:41;5.53;;;4.63;;
15006;SDS011;7599;50.748;13.142;2023-08-20T02:05:44;7.00;;;5.32;;
15006;SDS011;7599;50.748;13.142;2023-08-20T02:08:47;6.38;;;5.32;;
15006;SDS011;7599;50.748;13.142;2023-08-20T02:11:52;5.57;;;4.65;;
15006;SDS011;7599;50.748;13.142;2023-08-20T02:14:57;6.07;;;4.60;;
15006;SDS011;7599;50.748;13.142;2023-08-20T02:18:01;5.60;;;4.80;;
15006;SDS011;7599;50.748;13.142;2023-08-20T02:21:04;6.13;;;4.90;;
15006;SDS011;7599;50.748;13.142;2023-08-20T02:24:09;7.95;;;5.32;;
15006;SDS011;7599;50.748;13.142;2023-08-20T02:27:12;5.63;;;4.75;;
15006;SDS011;7599;50.748;13.142;2023-08-20T02:33:22;8.82;;;5.30;;
15006;SDS011;7599;50.748;13.142;2023-08-20T02:36:32;6.70;;;5.05;;
15006;SDS011;7599;50.748;13.142;2023-08-20T02:39:37;6.68;;;5.10;;
15006;SDS011;7599;50.748;13.142;2023-08-20T02:42:40;6.15;;;4.75;;
15006;SDS011;7599;50.748;13.142;2023-08-20T02:45:45;7.47;;;5.68;;
15006;SDS011;7599;50.748;13.142;2023-08-20T02:48:51;6.47;;;5.28;;
15006;SDS011;7599;50.748;13.142;2023-08-20T02:51:54;6.68;;;5.13;;
15006;SDS011;7599;50.748;13.142;2023-08-20T02:54:56;5.40;;;4.85;;
15006;SDS011;7599;50.748;13.142;2023-08-20T02:57:59;7.18;;;4.72;;
15006;SDS011;7599;50.748;13.142;2023-08-20T03:01:05;6.95;;;5.22;;
15006;SDS011;7599;50.748;13.142;2023-08-20T03:04:08;6.78;;;4.93;;
15006;SDS011;7599;50.748;13.142;2023-08-20T03:07:12;6.35;;;5.50;;
15006;SDS011;7599;50.748;13.142;2023-08-20T03:10:16;6.53;;;4.97;;
15006;SDS011;7599;50.748;13.142;2023-08-20T03:13:19;6.90;;;5.03;;
15006;SDS011;7599;50.748;13.142;2023-08-20T03:16:23;6.30;;;5.20;;
15006;SDS011;7599;50.748;13.142;2023-08-20T03:19:29;7.93;;;5.30;;
15006;SDS011;7599;50.748;13.142;2023-08-20T03:22:43;6.75;;;4.78;;
15006;SDS011;7599;50.748;13.142;2023-08-20T03:25:46;5.72;;;4.88;;
15006;SDS011;7599;50.748;13.142;2023-08-20T03:28:49;7.55;;;6.22;;
15006;SDS011;7599;50.748;13.142;2023-08-20T03:31:54;7.47;;;5.43;;
15006;SDS011;7599;50.748;13.142;2023-08-20T03:34:58;6.45;;;5.75;;
15006;SDS011;7599;50.748;13.142;2023-08-20T03:38:01;6.80;;;5.55;;
15006;SDS011;7599;50.748;13.142;2023-08-20T03:41:04;7.93;;;6.25;;
15006;SDS011;7599;50.748;13.142;2023-08-20T03:44:06;5.72;;;4.75;;
15006;SDS011;7599;50.748;13.142;2023-08-20T03:47:19;6.82;;;6.05;;
15006;SDS011;7599;50.748;13.142;2023-08-20T03:50:22;7.07;;;4.97;;
15006;SDS011;7599;50.748;13.142;2023-08-20T03:53:25;7.40;;;6.40;;
15006;SDS011;7599;50.748;13.142;2023-08-20T03:56:28;8.35;;;5.47;;
15006;SDS011;7599;50.748;13.142;2023-08-20T03:59:31;6.88;;;5.60;;
15006;SDS011;7599;50.748;13.142;2023-08-20T04:02:35;7.53;;;5.40;;
15006;SDS011;7599;50.748;13.142;2023-08-20T04:05:55;7.00;;;5.25;;
15006;SDS011;7599;50.748;13.142;2023-08-20T04:08:58;6.78;;;5.28;;
15006;SDS011;7599;50.748;13.142;2023-08-20T04:12:01;5.78;;;4.80;;
15006;SDS011;7599;50.748;13.142;2023-08-20T04:15:04;8.07;;;4.90;;
15006;SDS011;7599;50.748;13.142;2023-08-20T04:18:11;8.40;;;5.70;;
15006;SDS011;7599;50.748;13.142;2023-08-20T04:21:14;6.30;;;4.75;;
15006;SDS011;7599;50.748;13.142;2023-08-20T04:24:17;7.20;;;5.70;;
15006;SDS011;7599;50.748;13.142;2023-08-20T04:27:20;7.13;;;5.45;;
15006;SDS011;7599;50.748;13.142;2023-08-20T04:30:39;6.50;;;4.88;;
15006;SDS011;7599;50.748;13.142;2023-08-20T04:33:45;6.70;;;5.60;;
15006;SDS011;7599;50.748;13.142;2023-08-20T04:36:47;7.50;;;6.13;;
15006;SDS011;7599;50.748;13.142;2023-08-20T04:39:50;6.03;;;5.15;;
15006;SDS011;7599;50.748;13.142;2023-08-20T04:42:57;6.35;;;4.80;;
15006;SDS011;7599;50.748;13.142;2023-08-20T04:45:59;6.65;;;5.43;;
15006;SDS011;7599;50.748;13.142;2023-08-20T04:49:04;7.15;;;5.63;;
15006;SDS011;7599;50.748;13.142;2023-08-20T04:52:17;5.95;;;5.20;;
15006;SDS011;7599;50.748;13.142;2023-08-20T04:55:24;6.55;;;5.90;;
15006;SDS011;7599;50.748;13.142;2023-08-20T04:58:28;7.55;;;6.45;;
15006;SDS011;7599;50.748;13.142;2023-08-20T05:01:31;6.55;;;5.43;;
15006;SDS011;7599;50.748;13.142;2023-08-20T05:04:35;6.25;;;4.90;;
15006;SDS011;7599;50.748;13.142;2023-08-20T05:07:37;7.03;;;5.90;;
15006;SDS011;7599;50.748;13.142;2023-08-20T05:10:40;6.75;;;5.60;;
15006;SDS011;7599;50.748;13.142;2023-08-20T05:13:55;9.73;;;5.15;;
15006;SDS011;7599;50.748;13.142;2023-08-20T05:16:58;8.23;;;5.43;;
15006;SDS011;7599;50.748;13.142;2023-08-20T05:20:02;6.55;;;5.32;;
15006;SDS011;7599;50.748;13.142;2023-08-20T05:23:12;7.45;;;6.05;;
15006;SDS011;7599;50.748;13.142;2023-08-20T05:26:15;6.78;;;5.70;;
15006;SDS011;7599;50.748;13.142;2023-08-20T05:33:18;6.22;;;5.22;;
15006;SDS011;7599;50.748;13.142;2023-08-20T05:36:22;7.60;;;6.07;;
15006;SDS011;7599;50.748;13.142;2023-08-20T05:39:25;6.35;;;5.50;;
15006;SDS011;7599;50.748;13.142;2023-08-20T05:42:28;6.88;;;6.13;;
15006;SDS011;7599;50.748;13.142;2023-08-20T05:49:14;8.30;;;5.40;;
15006;SDS011;7599;50.748;13.142;2023-08-20T05:52:54;7.50;;;5.65;;
15006;SDS011;7599;50.748;13.142;2023-08-20T05:55:57;7.63;;;5.32;;
15006;SDS011;7599;50.748;13.142;2023-08-20T05:59:00;8.38;;;5.45;;
15006;SDS011;7599;50.748;13.142;2023-08-20T06:02:28;6.75;;;5.53;;
15006;SDS011;7599;50.748;13.142;2023-08-20T06:05:32;8.02;;;5.10;;
15006;SDS011;7599;50.748;13.142;2023-08-20T06:08:46;7.38;;;6.50;;
15006;SDS011;7599;50.748;13.142;2023-08-20T06:12:08;6.03;;;5.30;;
15006;SDS011;7599;50.748;13.142;2023-08-20T06:15:13;6.10;;;5.50;;
15006;SDS011;7599;50.748;13.142;2023-08-20T06:18:17;7.03;;;5.72;;
15006;SDS011;7599;50.748;13.142;2023-08-20T06:21:20;7.32;;;5.75;;
15006;SDS011;7599;50.748;13.142;2023-08-20T06:24:51;5.65;;;4.90;;
15006;SDS011;7599;50.748;13.142;2023-08-20T06:27:54;6.60;;;4.95;;
15006;SDS011;7599;50.748;13.142;2023-08-20T06:30:57;6.15;;;5.32;;
15006;SDS011;7599;50.748;13.142;2023-08-20T06:34:00;12.93;;;6.30;;
15006;SDS011;7599;50.748;13.142;2023-08-20T06:37:17;7.28;;;5.38;;
15006;SDS011;7599;50.748;13.142;2023-08-20T06:44:36;7.40;;;5.03;;
15006;SDS011;7599;50.748;13.142;2023-08-20T06:47:39;7.20;;;5.88;;
15006;SDS011;7599;50.748;13.142;2023-08-20T06:51:20;6.47;;;5.22;;
15006;SDS011;7599;50.748;13.142;2023-08-20T06:54:24;6.20;;;5.30;;
15006;SDS011;7599;50.748;13.142;2023-08-20T06:58:12;7.85;;;5.60;;
15006;SDS011;7599;50.748;13.142;2023-08-20T07:05:18;8.32;;;6.95;;
15006;SDS011;7599;50.748;13.142;2023-08-20T07:08:22;8.45;;;5.10;;
15006;SDS011;7599;50.748;13.142;2023-08-20T07:11:25;7.68;;;6.00;;
15006;SDS011;7599;50.748;13.142;2023-08-20T07:14:27;7.43;;;4.93;;
15006;SDS011;7599;50.748;13.142;2023-08-20T07:21:38;6.28;;;5.35;;
15006;SDS011;7599;50.748;13.142;2023-08-20T07:24:40;6.47;;;5.28;;
15006;SDS011;7599;50.748;13.142;2023-08-20T07:27:43;6.50;;;5.05;;
15006;SDS011;7599;50.748;13.142;2023-08-20T07:31:45;6.78;;;5.22;;
15006;SDS011;7599;50.748;13.142;2023-08-20T07:38:22;6.20;;;5.13;;
15006;SDS011;7599;50.748;13.142;2023-08-20T07:41:24;6.88;;;5.20;;
15006;SDS011;7599;50.748;13.142;2023-08-20T07:44:27;6.18;;;5.22;;
15006;SDS011;7599;50.748;13.142;2023-08-20T07:47:31;6.15;;;5.30;;
15006;SDS011;7599;50.748;13.142;2023-08-20T07:55:07;5.95;;;5.03;;
15006;SDS011;7599;50.748;13.142;2023-08-20T07:58:10;6.75;;;5.13;;
15006;SDS011;7599;50.748;13.142;2023-08-20T08:01:13;7.43;;;6.20;;
15006;SDS011;7599;50.748;13.142;2023-08-20T08:04:48;8.00;;;5.25;;
15006;SDS011;7599;50.748;13.142;2023-08-20T08:07:52;6.72;;;5.35;;
15006;SDS011;7599;50.748;13.142;2023-08-20T08:11:36;7.55;;;5.50;;
15006;SDS011;7599;50.748;13.142;2023-08-20T08:15:21;6.40;;;5.18;;
15006;SDS011;7599;50.748;13.142;2023-08-20T08:18:24;7.32;;;5.22;;
15006;SDS011;7599;50.748;13.142;2023-08-20T08:21:36;9.00;;;6.20;;
15006;SDS011;7599;50.748;13.142;2023-08-20T08:24:54;7.03;;;4.90;;
15006;SDS011;7599;50.748;13.142;2023-08-20T08:27:57;6.15;;;5.32;;
15006;SDS011;7599;50.748;13.142;2023-08-20T08:31:22;8.55;;;6.13;;
15006;SDS011;7599;50.748;13.142;2023-08-20T08:34:28;7.32;;;6.00;;
15006;SDS011;7599;50.748;13.142;2023-08-20T08:37:31;8.00;;;5.68;;
15006;SDS011;7599;50.748;13.142;2023-08-20T08:44:28;6.93;;;5.60;;
15006;SDS011;7599;50.748;13.142;2023-08-20T08:47:31;7.22;;;5.32;;
15006;SDS011;7599;50.748;13.142;2023-08-20T08:50:35;9.90;;;5.72;;
15006;SDS011;7599;50.748;13.142;2023-08-20T08:53:38;6.35;;;5.32;;
15006;SDS011;7599;50.748;13.142;2023-08-20T09:00:25;6.63;;;5.88;;
15006;SDS011;7599;50.748;13.142;2023-08-20T09:03:32;7.55;;;5.15;;
15006;SDS011;7599;50.748;13.142;2023-08-20T09:06:44;6.30;;;5.50;;
15006;SDS011;7599;50.748;13.142;2023-08-20T09:09:48;6.68;;;5.10;;
15006;SDS011;7599;50.748;13.142;2023-08-20T09:12:53;8.02;;;5.80;;
15006;SDS011;7599;50.748;13.142;2023-08-20T09:15:56;6.18;;;4.75;;
15006;SDS011;7599;50.748;13.142;2023-08-20T09:19:00;7.20;;;6.15;;
15006;SDS011;7599;50.748;13.142;2023-08-20T09:22:47;7.47;;;5.40;;
15006;SDS011;7599;50.748;13.142;2023-08-20T09:26:31;6.72;;;5.28;;
15006;SDS011;7599;50.748;13.142;2023-08-20T09:29:36;6.50;;;4.90;;
15006;SDS011;7599;50.748;13.142;2023-08-20T09:37:07;7.32;;;5.80;;
15006;SDS011;7599;50.748;13.142;2023-08-20T09:40:11;8.43;;;6.20;;
15006;SDS011;7599;50.748;13.142;2023-08-20T09:43:37;7.35;;;5.60;;
15006;SDS011;7599;50.748;13.142;2023-08-20T09:47:10;9.30;;;6.10;;
15006;SDS011;7599;50.748;13.142;2023-08-20T09:50:13;7.60;;;5.80;;
15006;SDS011;7599;50.748;13.142;2023-08-20T09:53:26;6.60;;;5.45;;
15006;SDS011;7599;50.748;13.142;2023-08-20T09:56:36;6.40;;;5.25;;
15006;SDS011;7599;50.748;13.142;2023-08-20T09:59:41;5.78;;;5.10;;
15006;SDS011;7599;50.748;13.142;2023-08-20T10:03:02;6.43;;;4.70;;
15006;SDS011;7599;50.748;13.142;2023-08-20T10:06:28;7.25;;;5.82;;
15006;SDS011;7599;50.748;13.142;2023-08-20T10:10:00;8.68;;;5.40;;
15006;SDS011;7599;50.748;13.142;2023-08-20T10:13:27;7.63;;;5.65;;
15006;SDS011;7599;50.748;13.142;2023-08-20T10:17:12;10.02;;;5.55;;
15006;SDS011;7599;50.748;13.142;2023-08-20T10:20:18;7.22;;;5.45;;
15006;SDS011;7599;50.748;13.142;2023-08-20T10:23:31;7.70;;;5.43;;
15006;SDS011;7599;50.748;13.142;2023-08-20T10:26:34;9.65;;;5.75;;
15006;SDS011;7599;50.748;13.142;2023-08-20T10:29:41;6.53;;;5.53;;
15006;SDS011;7599;50.748;13.142;2023-08-20T10:32:44;6.95;;;5.57;;
15006;SDS011;7599;50.748;13.142;2023-08-20T10:39:32;8.02;;;6.40;;
15006;SDS011;7599;50.748;13.142;2023-08-20T10:42:41;8.48;;;5.47;;
15006;SDS011;7599;50.748;13.142;2023-08-20T10:45:45;9.23;;;5.68;;
15006;SDS011;7599;50.748;13.142;2023-08-20T10:48:48;6.63;;;5.35;;
15006;SDS011;7599;50.748;13.142;2023-08-20T10:52:01;7.05;;;5.25;;
15006;SDS011;7599;50.748;13.142;2023-08-20T10:55:04;8.25;;;5.55;;
15006;SDS011;7599;50.748;13.142;2023-08-20T10:58:09;7.28;;;5.85;;
15006;SDS011;7599;50.748;13.142;2023-08-20T11:01:12;8.98;;;5.97;;
15006;SDS011;7599;50.748;13.142;2023-08-20T11:04:19;8.50;;;6.65;;
15006;SDS011;7599;50.748;13.142;2023-08-20T11:07:26;9.90;;;7.05;;
15006;SDS011;7599;50.748;13.142;2023-08-20T11:14:12;10.65;;;6.78;;
15006;SDS011;7599;50.748;13.142;2023-08-20T11:17:25;17.25;;;9.45;;
15006;SDS011;7599;50.748;13.142;2023-08-20T11:20:28;21.00;;;11.68;;
15006;SDS011;7599;50.748;13.142;2023-08-20T11:23:34;26.85;;;12.98;;
15006;SDS011;7599;50.748;13.142;2023-08-20T11:26:40;26.20;;;13.10;;
15006;SDS011;7599;50.748;13.142;2023-08-20T11:29:44;23.95;;;13.05;;
15006;SDS011;7599;50.748;13.142;2023-08-20T11:32:50;22.30;;;12.35;;
15006;SDS011;7599;50.748;13.142;2023-08-20T11:35:55;22.83;;;10.93;;
15006;SDS011;7599;50.748;13.142;2023-08-20T11:39:01;21.02;;;11.65;;
15006;SDS011;7599;50.748;13.142;2023-08-20T11:42:19;18.73;;;11.73;;
15006;SDS011;7599;50.748;13.142;2023-08-20T11:45:22;19.55;;;10.82;;
15006;SDS011;7599;50.748;13.142;2023-08-20T11:48:38;19.15;;;9.93;;
15006;SDS011;7599;50.748;13.142;2023-08-20T11:52:13;17.50;;;9.60;;
15006;SDS011;7599;50.748;13.142;2023-08-20T11:55:32;15.40;;;8.90;;
15006;SDS011;7599;50.748;13.142;2023-08-20T11:58:38;16.13;;;10.23;;
15006;SDS011;7599;50.748;13.142;2023-08-20T12:01:56;15.88;;;10.75;;
15006;SDS011;7599;50.748;13.142;2023-08-20T12:05:01;14.55;;;10.50;;
15006;SDS011;7599;50.748;13.142;2023-08-20T12:08:14;15.07;;;10.85;;
15006;SDS011;7599;50.748;13.142;2023-08-20T12:11:34;17.25;;;10.75;;
15006;SDS011;7599;50.748;13.142;2023-08-20T12:14:39;13.32;;;9.45;;
15006;SDS011;7599;50.748;13.142;2023-08-20T12:18:00;14.65;;;10.73;;
15006;SDS011;7599;50.748;13.142;2023-08-20T12:21:08;13.05;;;9.50;;
15006;SDS011;7599;50.748;13.142;2023-08-20T12:24:11;12.52;;;9.25;;
15006;SDS011;7599;50.748;13.142;2023-08-20T12:27:16;16.92;;;9.57;;
15006;SDS011;7599;50.748;13.142;2023-08-20T12:30:24;12.07;;;9.15;;
15006;SDS011;7599;50.748;13.142;2023-08-20T12:33:42;13.18;;;10.43;;
15006;SDS011;7599;50.748;13.142;2023-08-20T12:36:45;17.77;;;12.95;;
15006;SDS011;7599;50.748;13.142;2023-08-20T12:39:48;13.68;;;10.57;;
15006;SDS011;7599;50.748;13.142;2023-08-20T12:42:57;20.13;;;11.32;;
15006;SDS011;7599;50.748;13.142;2023-08-20T12:46:07;14.90;;;10.23;;
15006;SDS011;7599;50.748;13.142;2023-08-20T12:49:10;17.63;;;9.95;;
15006;SDS011;7599;50.748;13.142;2023-08-20T12:52:25;14.27;;;10.90;;
15006;SDS011;7599;50.748;13.142;2023-08-20T12:55:31;15.32;;;9.05;;
15006;SDS011;7599;50.748;13.142;2023-08-20T12:58:36;14.35;;;9.25;;
15006;SDS011;7599;50.748;13.142;2023-08-20T13:01:39;12.75;;;10.48;;
15006;SDS011;7599;50.748;13.142;2023-08-20T13:04:42;12.52;;;10.65;;
15006;SDS011;7599;50.748;13.142;2023-08-20T13:07:45;12.55;;;9.13;;
15006;SDS011;7599;50.748;13.142;2023-08-20T13:10:49;13.68;;;10.10;;
15006;SDS011;7599;50.748;13.142;2023-08-20T13:14:06;12.43;;;9.27;;
15006;SDS011;7599;50.748;13.142;2023-08-20T13:17:10;13.90;;;10.32;;
15006;SDS011;7599;50.748;13.142;2023-08-20T13:20:13;14.48;;;9.65;;
15006;SDS011;7599;50.748;13.142;2023-08-20T13:23:21;11.65;;;9.05;;
15006;SDS011;7599;50.748;13.142;2023-08-20T13:26:36;13.13;;;10.25;;
15006;SDS011;7599;50.748;13.142;2023-08-20T13:29:41;11.25;;;8.68;;
15006;SDS011;7599;50.748;13.142;2023-08-20T13:33:08;12.27;;;8.82;;
15006;SDS011;7599;50.748;13.142;2023-08-20T13:42:03;13.07;;;10.55;;
15006;SDS011;7599;50.748;13.142;2023-08-20T13:49:53;11.20;;;8.50;;
15006;SDS011;7599;50.748;13.142;2023-08-20T13:52:56;13.07;;;9.07;;
15006;SDS011;7599;50.748;13.142;2023-08-20T13:56:01;12.68;;;9.30;;
15006;SDS011;7599;50.748;13.142;2023-08-20T13:59:05;11.57;;;8.82;;
15006;SDS011;7599;50.748;13.142;2023-08-20T14:02:10;13.55;;;8.65;;
15006;SDS011;7599;50.748;13.142;2023-08-20T14:09:38;12.45;;;9.25;;
15006;SDS011;7599;50.748;13.142;2023-08-20T14:13:17;13.23;;;9.68;;
15006;SDS011;7599;50.748;13.142;2023-08-20T14:16:47;10.50;;;8.88;;
15006;SDS011;7599;50.748;13.142;2023-08-20T14:19:51;12.90;;;9.45;;
15006;SDS011;7599;50.748;13.142;2023-08-20T14:22:56;10.35;;;8.35;;
15006;SDS011;7599;50.748;13.142;2023-08-20T14:25:59;13.18;;;8.65;;
15006;SDS011;7599;50.748;13.142;2023-08-20T14:29:05;10.55;;;8.40;;
15006;SDS011;7599;50.748;13.142;2023-08-20T14:32:12;11.18;;;9.05;;
15006;SDS011;7599;50.748;13.142;2023-08-20T14:35:17;10.95;;;9.27;;
15006;SDS011;7599;50.748;13.142;2023-08-20T14:38:31;9.95;;;8.80;;
15006;SDS011;7599;50.748;13.142;2023-08-20T14:41:34;11.57;;;8.50;;
15006;SDS011;7599;50.748;13.142;2023-08-20T14:44:45;9.55;;;7.82;;
15006;SDS011;7599;50.748;13.142;2023-08-20T14:47:48;11.52;;;9.05;;
15006;SDS011;7599;50.748;13.142;2023-08-20T14:50:58;11.80;;;8.98;;
15006;SDS011;7599;50.748;13.142;2023-08-20T14:58:52;11.95;;;8.23;;
15006;SDS011;7599;50.748;13.142;2023-08-20T15:08:07;9.45;;;8.40;;
15006;SDS011;7599;50.748;13.142;2023-08-20T15:15:01;9.00;;;7.22;;
15006;SDS011;7599;50.748;13.142;2023-08-20T15:19:09;9.90;;;8.70;;
15006;SDS011;7599;50.748;13.142;2023-08-20T15:26:50;9.68;;;7.45;;
15006;SDS011;7599;50.748;13.142;2023-08-20T15:44:09;8.80;;;7.65;;
15006;SDS011;7599;50.748;13.142;2023-08-20T15:47:20;8.55;;;7.45;;
15006;SDS011;7599;50.748;13.142;2023-08-20T15:50:25;10.48;;;7.53;;
15006;SDS011;7599;50.748;13.142;2023-08-20T15:53:35;9.43;;;8.05;;
15006;SDS011;7599;50.748;13.142;2023-08-20T15:56:39;12.13;;;8.77;;
15006;SDS011;7599;50.748;13.142;2023-08-20T15:59:44;13.82;;;7.88;;
15006;SDS011;7599;50.748;13.142;2023-08-20T16:02:56;10.82;;;7.82;;
15006;SDS011;7599;50.748;13.142;2023-08-20T16:06:07;14.23;;;8.18;;
15006;SDS011;7599;50.748;13.142;2023-08-20T16:13:12;9.50;;;7.05;;
15006;SDS011;7599;50.748;13.142;2023-08-20T16:16:16;10.10;;;7.47;;
15006;SDS011;7599;50.748;13.142;2023-08-20T16:19:20;11.38;;;8.35;;
15006;SDS011;7599;50.748;13.142;2023-08-20T16:22:24;11.43;;;8.57;;
15006;SDS011;7599;50.748;13.142;2023-08-20T16:25:27;12.40;;;7.95;;
15006;SDS011;7599;50.748;13.142;2023-08-20T16:28:30;10.60;;;6.90;;
15006;SDS011;7599;50.748;13.142;2023-08-20T16:31:35;10.15;;;5.97;;
15006;SDS011;7599;50.748;13.142;2023-08-20T16:34:38;8.43;;;6.80;;
15006;SDS011;7599;50.748;13.142;2023-08-20T16:37:42;8.90;;;6.85;;
15006;SDS011;7599;50.748;13.142;2023-08-20T16:40:45;7.93;;;6.43;;
15006;SDS011;7599;50.748;13.142;2023-08-20T16:43:48;9.45;;;6.25;;
15006;SDS011;7599;50.748;13.142;2023-08-20T16:46:52;7.35;;;5.32;;
15006;SDS011;7599;50.748;13.142;2023-08-20T16:50:39;8.63;;;6.05;;
15006;SDS011;7599;50.748;13.142;2023-08-20T16:57:28;6.82;;;5.50;;
15006;SDS011;7599;50.748;13.142;2023-08-20T17:00:33;9.05;;;5.70;;
15006;SDS011;7599;50.748;13.142;2023-08-20T17:07:09;7.43;;;5.68;;
15006;SDS011;7599;50.748;13.142;2023-08-20T17:13:22;7.13;;;4.82;;
15006;SDS011;7599;50.748;13.142;2023-08-20T17:16:34;8.93;;;5.32;;
15006;SDS011;7599;50.748;13.142;2023-08-20T17:19:50;7.38;;;5.20;;
15006;SDS011;7599;50.748;13.142;2023-08-20T17:22:53;7.75;;;6.03;;
15006;SDS011;7599;50.748;13.142;2023-08-20T17:26:02;6.38;;;5.00;;
15006;SDS011;7599;50.748;13.142;2023-08-20T17:29:11;8.80;;;6.53;;
15006;SDS011;7599;50.748;13.142;2023-08-20T17:32:14;6.10;;;5.47;;
15006;SDS011;7599;50.748;13.142;2023-08-20T17:35:28;7.32;;;5.45;;
15006;SDS011;7599;50.748;13.142;2023-08-20T17:38:49;6.70;;;5.20;;
15006;SDS011;7599;50.748;13.142;2023-08-20T17:42:03;6.57;;;5.85;;
15006;SDS011;7599;50.748;13.142;2023-08-20T17:48:31;6.88;;;5.47;;
15006;SDS011;7599;50.748;13.142;2023-08-20T17:51:39;7.45;;;5.75;;
15006;SDS011;7599;50.748;13.142;2023-08-20T17:54:43;6.43;;;4.88;;
15006;SDS011;7599;50.748;13.142;2023-08-20T17:58:05;6.47;;;5.05;;
15006;SDS011;7599;50.748;13.142;2023-08-20T18:01:10;6.13;;;4.93;;
15006;SDS011;7599;50.748;13.142;2023-08-20T18:04:13;7.47;;;5.93;;
15006;SDS011;7599;50.748;13.142;2023-08-20T18:07:17;7.90;;;5.63;;
15006;SDS011;7599;50.748;13.142;2023-08-20T18:10:21;11.43;;;6.88;;
15006;SDS011;7599;50.748;13.142;2023-08-20T18:13:27;6.00;;;5.00;;
15006;SDS011;7599;50.748;13.142;2023-08-20T18:16:33;7.60;;;5.82;;
15006;SDS011;7599;50.748;13.142;2023-08-20T18:22:56;7.35;;;5.60;;
15006;SDS011;7599;50.748;13.142;2023-08-20T18:26:02;7.15;;;5.60;;
15006;SDS011;7599;50.748;13.142;2023-08-20T18:29:05;8.50;;;6.30;;
15006;SDS011;7599;50.748;13.142;2023-08-20T18:32:10;6.15;;;5.03;;
15006;SDS011;7599;50.748;13.142;2023-08-20T18:35:13;7.43;;;5.28;;
15006;SDS011;7599;50.748;13.142;2023-08-20T18:41:42;7.45;;;5.57;;
15006;SDS011;7599;50.748;13.142;2023-08-20T18:44:46;6.30;;;5.65;;
15006;SDS011;7599;50.748;13.142;2023-08-20T18:47:51;9.18;;;6.00;;
15006;SDS011;7599;50.748;13.142;2023-08-20T18:50:57;6.47;;;5.20;;
15006;SDS011;7599;50.748;13.142;2023-08-20T18:54:09;5.90;;;5.20;;
15006;SDS011;7599;50.748;13.142;2023-08-20T18:57:12;6.18;;;4.95;;
15006;SDS011;7599;50.748;13.142;2023-08-20T19:00:38;6.65;;;5.30;;
15006;SDS011;7599;50.748;13.142;2023-08-20T19:03:41;6.25;;;5.60;;
15006;SDS011;7599;50.748;13.142;2023-08-20T19:06:44;7.03;;;5.40;;
15006;SDS011;7599;50.748;13.142;2023-08-20T19:09:58;7.47;;;5.80;;
15006;SDS011;7599;50.748;13.142;2023-08-20T19:13:01;8.35;;;6.05;;
15006;SDS011;7599;50.748;13.142;2023-08-20T19:16:04;7.07;;;6.00;;
15006;SDS011;7599;50.748;13.142;2023-08-20T19:19:07;6.57;;;5.10;;
15006;SDS011;7599;50.748;13.142;2023-08-20T19:22:20;7.05;;;5.05;;
15006;SDS011;7599;50.748;13.142;2023-08-20T19:25:26;7.88;;;6.03;;
15006;SDS011;7599;50.748;13.142;2023-08-20T19:28:29;6.68;;;5.45;;
15006;SDS011;7599;50.748;13.142;2023-08-20T19:31:51;6.45;;;4.72;;
15006;SDS011;7599;50.748;13.142;2023-08-20T19:35:08;7.10;;;6.15;;
15006;SDS011;7599;50.748;13.142;2023-08-20T19:38:37;7.03;;;5.68;;
15006;SDS011;7599;50.748;13.142;2023-08-20T19:41:42;7.55;;;5.15;;
15006;SDS011;7599;50.748;13.142;2023-08-20T19:45:15;6.13;;;5.05;;
15006;SDS011;7599;50.748;13.142;2023-08-20T19:48:25;7.28;;;5.93;;
15006;SDS011;7599;50.748;13.142;2023-08-20T19:51:46;6.20;;;5.53;;
15006;SDS011;7599;50.748;13.142;2023-08-20T19:54:50;6.53;;;5.50;;
15006;SDS011;7599;50.748;13.142;2023-08-20T19:58:35;8.45;;;6.82;;
15006;SDS011;7599;50.748;13.142;2023-08-20T20:01:44;7.35;;;6.55;;
15006;SDS011;7599;50.748;13.142;2023-08-20T20:05:20;6.78;;;5.30;;
15006;SDS011;7599;50.748;13.142;2023-08-20T20:08:38;6.95;;;5.97;;
15006;SDS011;7599;50.748;13.142;2023-08-20T20:11:56;6.75;;;5.93;;
15006;SDS011;7599;50.748;13.142;2023-08-20T20:15:13;6.68;;;5.38;;
15006;SDS011;7599;50.748;13.142;2023-08-20T20:18:16;7.28;;;6.03;;
15006;SDS011;7599;50.748;13.142;2023-08-20T20:21:19;7.40;;;5.80;;
15006;SDS011;7599;50.748;13.142;2023-08-20T20:24:22;5.90;;;5.30;;
15006;SDS011;7599;50.748;13.142;2023-08-20T20:27:24;8.13;;;6.10;;
15006;SDS011;7599;50.748;13.142;2023-08-20T20:30:29;8.85;;;6.47;;
15006;SDS011;7599;50.748;13.142;2023-08-20T20:33:31;7.70;;;6.28;;
15006;SDS011;7599;50.748;13.142;2023-08-20T20:36:34;6.18;;;5.20;;
15006;SDS011;7599;50.748;13.142;2023-08-20T20:39:38;8.32;;;6.85;;
15006;SDS011;7599;50.748;13.142;2023-08-20T20:43:09;7.40;;;5.90;;
15006;SDS011;7599;50.748;13.142;2023-08-20T20:54:03;7.38;;;5.60;;
15006;SDS011;7599;50.748;13.142;2023-08-20T20:57:22;7.75;;;6.57;;
15006;SDS011;7599;50.748;13.142;2023-08-20T21:00:40;8.02;;;5.95;;
15006;SDS011;7599;50.748;13.142;2023-08-20T21:03:44;6.70;;;5.93;;